Terminal Aerodrome Forecast
Issued by NWS Charleston, WV

Current Version | Previous Version | Graphics & Text | Print | Product List | Glossary On
Versions: 1 2 3 4 5 6 7 8 9 10 11 12 13 14 15 16 17 18 19 20 21 22 23 24 25
000
FTUS41 KRLX 031728
TAFEKN
TAF
KEKN 031728Z 0318/0418 21008G16KT P6SM BKN070
     FM040000 24006KT P6SM VCTS BKN050CB
     FM040300 22006KT P6SM VCTS BKN030CB
     FM040900 23006KT P6SM VCTS BKN020CB
     FM041100 24006KT P6SM BKN010
     FM041400 27005KT P6SM BKN020=

USA.gov is the U.S. government's official web portal to all federal, state and local government web resources and services.